createdAt,value
2022-12-16T00:01:28.004Z,25.65
2022-12-16T00:03:57.112Z,27.60
2022-12-16T00:06:26.656Z,26.80
2022-12-16T00:08:54.908Z,26.33
2022-12-16T00:11:22.521Z,24.17
2022-12-16T00:13:49.782Z,25.20
2022-12-16T00:16:19.762Z,21.75
2022-12-16T00:18:47.587Z,23.38
2022-12-16T00:21:15.227Z,23.17
2022-12-16T00:23:42.475Z,21.77
2022-12-16T00:26:10.182Z,22.20
2022-12-16T00:28:37.785Z,22.58
2022-12-16T00:31:05.388Z,25.08
2022-12-16T00:33:33.536Z,24.27
2022-12-16T00:36:01.055Z,22.60
2022-12-16T00:38:28.404Z,23.08
2022-12-16T00:40:55.749Z,23.23
2022-12-16T00:43:23.123Z,21.85
2022-12-16T00:45:50.486Z,22.85
2022-12-16T00:48:19.316Z,22.10
2022-12-16T00:50:55.245Z,23.90
2022-12-16T00:53:23.122Z,21.80
2022-12-16T00:55:50.474Z,22.27
2022-12-16T00:58:17.897Z,22.25
2022-12-16T01:00:45.397Z,21.10
2022-12-16T01:03:18.015Z,22.77
2022-12-16T01:05:48.493Z,23.42
2022-12-16T01:08:15.996Z,23.50
2022-12-16T01:10:43.405Z,23.23
2022-12-16T01:13:10.790Z,22.13
2022-12-16T01:15:38.499Z,24.10
2022-12-16T01:18:05.904Z,24.70
2022-12-16T01:20:34.576Z,24.08
2022-12-16T01:23:01.839Z,22.92
2022-12-16T01:25:29.156Z,22.45
2022-12-16T01:27:56.459Z,21.98
2022-12-16T01:30:24.723Z,23.60
2022-12-16T01:32:52.031Z,21.23
2022-12-16T01:35:51.563Z,22.10
2022-12-16T01:38:06.754Z,19.83
2022-12-16T01:40:34.006Z,23.73
2022-12-16T01:43:01.303Z,23.73
2022-12-16T01:45:28.574Z,22.40
2022-12-16T01:47:57.667Z,22.70
2022-12-16T01:50:25.113Z,23.17
2022-12-16T01:52:56.260Z,20.90
2022-12-16T01:55:28.269Z,20.95
2022-12-16T01:58:00.165Z,21.73
2022-12-16T02:00:27.466Z,21.80
2022-12-16T02:02:54.995Z,22.30
2022-12-16T02:05:23.471Z,22.20
2022-12-16T02:08:06.997Z,22.88
2022-12-16T02:10:43.395Z,22.85
2022-12-16T02:13:50.013Z,22.98
2022-12-16T02:16:39.339Z,21.40
2022-12-16T02:19:43.038Z,21.08
2022-12-16T02:22:13.133Z,21.80
2022-12-16T02:25:17.454Z,25.15
2022-12-16T02:27:47.346Z,20.75
2022-12-16T02:30:38.469Z,22.98
2022-12-16T02:33:22.464Z,21.42
2022-12-16T02:35:49.718Z,22.23
2022-12-16T02:38:22.600Z,22.65
2022-12-16T02:41:16.324Z,24.13
2022-12-16T02:43:59.843Z,22.60
2022-12-16T02:46:30.177Z,23.35
2022-12-16T02:48:57.448Z,26.55
2022-12-16T02:51:26.928Z,25.88
2022-12-16T02:53:54.864Z,24.80
2022-12-16T02:56:37.928Z,24.63
2022-12-16T02:59:21.240Z,25.38
2022-12-16T03:01:58.048Z,24.80
2022-12-16T03:04:38.484Z,21.95
2022-12-16T03:07:10.721Z,26.10
2022-12-16T03:09:39.554Z,24.60
2022-12-16T03:12:11.752Z,25.45
2022-12-16T03:14:42.104Z,23.67
2022-12-16T03:17:09.838Z,23.77
2022-12-16T03:19:39.346Z,26.50
2022-12-16T03:22:20.764Z,24.20
2022-12-16T03:24:48.657Z,25.63
2022-12-16T03:27:29.138Z,23.65
2022-12-16T03:30:13.963Z,23.65
2022-12-16T03:35:43.050Z,23.30
2022-12-16T03:38:12.432Z,24.00
2022-12-16T03:40:42.302Z,23.77
2022-12-16T03:43:14.256Z,26.40
2022-12-16T03:45:43.587Z,24.63
2022-12-16T03:48:12.912Z,24.85
2022-12-16T03:50:40.696Z,25.65
2022-12-16T03:53:08.625Z,23.23
2022-12-16T03:55:35.947Z,24.75
2022-12-16T03:58:03.202Z,26.63
2022-12-16T04:00:30.518Z,24.52
2022-12-16T04:02:58.046Z,25.13
2022-12-16T04:05:25.846Z,26.27
2022-12-16T04:07:54.391Z,25.92
2022-12-16T04:10:43.628Z,25.15
2022-12-16T04:13:30.101Z,25.95
2022-12-16T04:16:16.026Z,23.40
2022-12-16T04:19:02.175Z,24.95
2022-12-16T04:21:47.924Z,26.05
2022-12-16T04:24:22.524Z,22.88
2022-12-16T04:27:14.881Z,24.30
2022-12-16T04:30:02.828Z,24.40
2022-12-16T04:32:53.844Z,26.27
2022-12-16T04:35:40.011Z,25.27
2022-12-16T04:38:25.901Z,25.27
2022-12-16T04:41:11.832Z,23.85
2022-12-16T04:43:58.134Z,25.95
2022-12-16T04:46:44.354Z,26.00
2022-12-16T04:49:30.488Z,24.25
2022-12-16T04:52:16.503Z,26.10
2022-12-16T04:55:02.538Z,23.13
2022-12-16T04:57:48.297Z,23.35
2022-12-16T05:00:34.413Z,23.73
2022-12-16T05:03:20.233Z,24.67
2022-12-16T05:06:06.276Z,23.58
2022-12-16T05:08:52.332Z,23.25
2022-12-16T05:11:38.571Z,24.58
2022-12-16T05:14:24.540Z,24.00
2022-12-16T05:17:10.534Z,23.73
2022-12-16T05:19:56.609Z,23.02
2022-12-16T05:22:42.600Z,24.15
2022-12-16T05:25:28.789Z,24.67
2022-12-16T05:28:14.936Z,22.88
2022-12-16T05:31:00.807Z,22.67
2022-12-16T05:33:46.749Z,22.42
2022-12-16T05:36:32.708Z,23.60
2022-12-16T05:39:18.805Z,24.15
2022-12-16T05:42:04.788Z,24.38
2022-12-16T05:44:50.713Z,25.02
2022-12-16T05:47:36.475Z,25.48
2022-12-16T05:50:22.467Z,27.17
2022-12-16T05:53:12.015Z,25.08
2022-12-16T05:55:58.044Z,24.90
2022-12-16T05:58:44.033Z,24.90
2022-12-16T06:01:30.193Z,26.73
2022-12-16T06:04:17.856Z,27.35
2022-12-16T06:07:04.008Z,27.10
2022-12-16T06:09:56.073Z,26.63
2022-12-16T06:12:42.769Z,26.48
2022-12-16T06:15:28.988Z,28.10
2022-12-16T06:18:15.047Z,26.77
2022-12-16T06:21:00.880Z,29.17
2022-12-16T06:23:46.978Z,27.90
2022-12-16T06:26:33.099Z,27.05
2022-12-16T06:29:18.851Z,26.52
2022-12-16T06:32:05.093Z,29.05
2022-12-16T06:34:51.202Z,29.08
2022-12-16T06:37:37.019Z,26.92
2022-12-16T06:40:22.982Z,25.38
2022-12-16T06:43:08.792Z,26.92
2022-12-16T06:45:54.965Z,29.67
2022-12-16T06:48:41.269Z,28.58
2022-12-16T06:51:27.068Z,29.23
2022-12-16T06:54:13.193Z,28.45
2022-12-16T06:56:59.365Z,28.70
2022-12-16T06:59:45.064Z,29.08
2022-12-16T07:02:31.689Z,25.10
2022-12-16T07:05:17.871Z,28.33
2022-12-16T07:08:10.096Z,24.63
2022-12-16T07:11:03.394Z,26.08
2022-12-16T07:14:02.599Z,25.92
2022-12-16T07:16:48.718Z,27.30
2022-12-16T07:19:34.867Z,28.73
2022-12-16T07:22:21.086Z,28.83
2022-12-16T07:25:06.894Z,26.05
2022-12-16T07:27:52.862Z,26.80
2022-12-16T07:30:38.660Z,25.60
2022-12-16T07:33:24.733Z,26.00
2022-12-16T07:36:10.471Z,26.25
2022-12-16T07:38:56.455Z,26.27
2022-12-16T07:41:42.279Z,24.77
2022-12-16T07:44:28.128Z,26.55
2022-12-16T07:47:13.891Z,26.98
2022-12-16T07:49:59.742Z,25.90
2022-12-16T07:52:45.967Z,28.50
2022-12-16T07:55:31.954Z,25.30
2022-12-16T07:58:18.092Z,24.58
2022-12-16T08:01:09.266Z,24.35
2022-12-16T08:03:56.015Z,25.60
2022-12-16T08:06:42.060Z,25.05
2022-12-16T08:09:28.086Z,23.30
2022-12-16T08:12:14.213Z,24.35
2022-12-16T08:14:59.890Z,23.77
2022-12-16T08:17:45.703Z,26.95
2022-12-16T08:20:31.488Z,25.90
2022-12-16T08:23:17.710Z,29.33
2022-12-16T08:26:03.606Z,24.88
2022-12-16T08:28:49.625Z,25.75
2022-12-16T08:31:35.811Z,25.83
2022-12-16T08:34:21.840Z,29.20
2022-12-16T08:37:07.879Z,28.55
2022-12-16T08:40:10.991Z,26.75
2022-12-16T08:43:00.245Z,27.33
2022-12-16T08:45:46.100Z,28.65
2022-12-16T08:48:32.349Z,26.10
2022-12-16T08:51:21.762Z,29.45
2022-12-16T08:54:07.755Z,30.13
2022-12-16T08:56:53.807Z,29.40
2022-12-16T08:59:40.623Z,27.73
2022-12-16T09:02:26.656Z,28.92
2022-12-16T09:05:12.604Z,29.50
2022-12-16T09:07:58.418Z,30.52
2022-12-16T09:10:44.235Z,25.38
2022-12-16T09:13:32.169Z,25.77
2022-12-16T09:16:19.833Z,24.63
2022-12-16T09:19:06.047Z,26.33
2022-12-16T09:21:52.346Z,26.88
2022-12-16T09:24:40.490Z,26.85
2022-12-16T09:27:26.026Z,27.17
2022-12-16T09:30:11.847Z,25.35
2022-12-16T09:33:01.551Z,26.73
2022-12-16T09:35:47.731Z,29.85
2022-12-16T09:38:33.961Z,29.67
2022-12-16T09:41:53.928Z,28.60
2022-12-16T09:45:11.283Z,28.25
2022-12-16T09:48:03.890Z,25.17
2022-12-16T09:50:50.539Z,27.08
2022-12-16T09:53:40.651Z,27.58
2022-12-16T09:56:49.417Z,27.05
2022-12-16T10:00:03.188Z,26.13
2022-12-16T10:02:49.409Z,27.60
2022-12-16T10:05:43.180Z,25.63
2022-12-16T10:08:40.569Z,26.13
2022-12-16T10:11:57.519Z,26.10
2022-12-16T10:14:54.801Z,25.08
2022-12-16T10:17:44.286Z,25.33
2022-12-16T10:20:49.011Z,26.70
2022-12-16T10:23:48.406Z,28.03
2022-12-16T10:26:41.076Z,26.95
2022-12-16T10:29:38.418Z,27.45
2022-12-16T10:32:47.781Z,23.38
2022-12-16T10:35:41.432Z,25.20
2022-12-16T10:38:40.758Z,25.92
2022-12-16T10:41:28.289Z,23.42
2022-12-16T10:44:15.789Z,25.00
2022-12-16T10:47:01.662Z,24.50
2022-12-16T10:49:53.707Z,28.05
2022-12-16T10:52:40.875Z,25.73
2022-12-16T10:55:26.528Z,24.67
2022-12-16T10:58:12.421Z,28.52
2022-12-16T11:01:10.108Z,25.42
2022-12-16T11:03:58.495Z,25.88
2022-12-16T11:06:44.729Z,27.65
2022-12-16T11:09:38.935Z,24.77
2022-12-16T11:12:45.236Z,25.92
2022-12-16T11:15:46.784Z,30.45
2022-12-16T11:18:39.897Z,31.00
2022-12-16T11:21:32.432Z,31.70
2022-12-16T11:24:29.128Z,31.50
2022-12-16T11:27:17.706Z,29.98
2022-12-16T11:30:15.315Z,31.58
2022-12-16T11:33:25.064Z,30.83
2022-12-16T11:36:24.111Z,30.58
2022-12-16T11:39:11.226Z,31.88
2022-12-16T11:42:03.879Z,54.85
2022-12-16T11:45:01.635Z,36.33
2022-12-16T11:47:47.813Z,33.75
2022-12-16T11:50:36.967Z,33.63
2022-12-16T11:53:32.667Z,35.35
2022-12-16T11:56:19.248Z,33.40
2022-12-16T11:59:12.084Z,33.75
2022-12-16T12:02:00.417Z,35.10
2022-12-16T12:04:46.641Z,35.00
2022-12-16T12:07:48.514Z,38.60
2022-12-16T12:10:42.854Z,38.75
2022-12-16T12:13:46.051Z,40.27
2022-12-16T12:17:01.400Z,38.60
2022-12-16T12:20:16.405Z,39.88
2022-12-16T12:23:02.699Z,39.53
2022-12-16T12:26:01.896Z,33.22
2022-12-16T12:29:13.742Z,32.67
2022-12-16T12:32:21.904Z,35.10
2022-12-16T12:35:08.026Z,33.50
2022-12-16T12:38:07.733Z,35.75
2022-12-16T12:41:45.208Z,35.70
2022-12-16T12:45:08.617Z,35.92
2022-12-16T12:48:01.843Z,33.88
2022-12-16T12:50:54.269Z,37.88
2022-12-16T12:54:08.536Z,37.22
2022-12-16T12:56:54.529Z,38.05
2022-12-16T12:59:48.498Z,37.65
2022-12-16T13:02:41.996Z,36.00
2022-12-16T13:05:33.733Z,37.92
2022-12-16T13:08:53.158Z,35.15
2022-12-16T13:11:39.088Z,39.72
2022-12-16T13:14:51.437Z,36.88
2022-12-16T13:17:41.216Z,36.22
2022-12-16T13:20:55.497Z,37.25
2022-12-16T13:23:53.017Z,34.60
2022-12-16T13:26:40.793Z,36.40
2022-12-16T13:29:49.271Z,38.15
2022-12-16T13:32:42.246Z,38.38
2022-12-16T13:35:28.331Z,39.75
2022-12-16T13:38:36.268Z,38.67
2022-12-16T13:41:25.275Z,33.28
2022-12-16T13:44:16.173Z,37.38
2022-12-16T13:47:04.119Z,36.28
2022-12-16T13:49:55.620Z,34.40
2022-12-16T13:52:51.645Z,35.97
2022-12-16T13:56:05.882Z,35.75
2022-12-16T13:58:52.085Z,33.15
2022-12-16T14:01:44.938Z,34.10
2022-12-16T14:04:38.964Z,35.00
2022-12-16T14:07:25.161Z,31.38
2022-12-16T14:10:10.944Z,34.97
2022-12-16T14:13:18.485Z,34.20
2022-12-16T14:16:37.925Z,34.35
2022-12-16T14:19:32.373Z,35.30
2022-12-16T14:22:18.109Z,34.27
2022-12-16T14:25:04.407Z,32.05
2022-12-16T14:27:53.159Z,34.85
2022-12-16T14:30:44.107Z,32.15
2022-12-16T14:33:47.200Z,31.80
2022-12-16T14:36:47.597Z,34.08
2022-12-16T14:39:42.050Z,30.90
2022-12-16T14:42:38.790Z,30.92
2022-12-16T14:45:39.023Z,33.33
2022-12-16T14:48:43.182Z,31.00
2022-12-16T14:51:49.598Z,33.13
2022-12-16T14:54:57.541Z,33.45
2022-12-16T14:57:47.830Z,35.90
2022-12-16T15:00:37.722Z,34.88
2022-12-16T15:03:23.954Z,31.50
2022-12-16T15:06:10.560Z,33.72
2022-12-16T15:09:12.527Z,34.25
2022-12-16T15:11:59.485Z,34.53
2022-12-16T15:14:49.503Z,33.85
2022-12-16T15:18:09.454Z,33.65
2022-12-16T15:21:00.167Z,32.33
2022-12-16T15:23:50.389Z,35.47
2022-12-16T15:26:44.744Z,37.47
2022-12-16T15:29:56.052Z,36.77
2022-12-16T15:32:51.594Z,39.47
2022-12-16T15:35:45.875Z,34.83
2022-12-16T15:38:43.793Z,32.95
2022-12-16T15:41:52.314Z,33.60
2022-12-16T15:44:40.544Z,30.40
2022-12-16T15:47:51.135Z,30.90
2022-12-16T15:50:40.919Z,33.05
2022-12-16T15:53:50.283Z,34.45
2022-12-16T15:56:44.925Z,36.42
2022-12-16T15:59:49.438Z,33.58
2022-12-16T16:02:53.833Z,31.95
2022-12-16T16:05:42.582Z,35.85
2022-12-16T16:08:30.716Z,35.63
2022-12-16T16:11:16.744Z,33.50
2022-12-16T16:14:08.264Z,30.10
2022-12-16T16:16:57.940Z,40.85
2022-12-16T16:19:45.445Z,25.42
2022-12-16T16:22:32.984Z,28.90
2022-12-16T16:25:18.907Z,23.92
2022-12-16T16:28:05.101Z,19.58
2022-12-16T16:30:50.771Z,18.35
2022-12-16T16:33:36.868Z,17.35
2022-12-16T16:36:34.196Z,18.80
2022-12-16T16:39:19.804Z,30.92
2022-12-16T16:42:05.475Z,21.58
2022-12-16T16:44:51.581Z,21.52
2022-12-16T16:47:37.291Z,21.42
2022-12-16T16:50:23.256Z,20.60
2022-12-16T16:53:08.963Z,19.30
2022-12-16T16:55:55.546Z,20.02
2022-12-16T16:58:46.202Z,20.90
2022-12-16T17:01:33.061Z,24.23
2022-12-16T17:04:19.432Z,22.83
2022-12-16T17:07:05.283Z,22.27
2022-12-16T17:09:50.714Z,17.70
2022-12-16T17:12:45.781Z,20.30
2022-12-16T17:15:47.758Z,22.08
2022-12-16T17:18:34.746Z,17.65
2022-12-16T17:21:21.733Z,18.33
2022-12-16T17:24:07.635Z,20.08
2022-12-16T17:26:53.565Z,20.38
2022-12-16T17:29:41.509Z,19.75
2022-12-16T17:32:27.387Z,20.42
2022-12-16T17:35:13.438Z,19.10
2022-12-16T17:37:59.107Z,21.05
2022-12-16T17:40:44.995Z,23.33
2022-12-16T17:43:31.141Z,22.90
2022-12-16T17:46:23.087Z,24.05
2022-12-16T17:49:16.701Z,23.67
2022-12-16T17:52:02.771Z,24.38
2022-12-16T17:54:48.985Z,23.08
2022-12-16T17:57:35.238Z,19.80
2022-12-16T18:00:21.009Z,21.02
2022-12-16T18:03:07.106Z,20.83
2022-12-16T18:05:52.584Z,19.77
2022-12-16T18:08:38.120Z,23.70
2022-12-16T18:11:23.469Z,24.40
2022-12-16T18:14:08.773Z,25.35
2022-12-16T18:16:54.324Z,21.80
2022-12-16T18:19:40.234Z,21.10
2022-12-16T18:22:25.942Z,19.13
2022-12-16T18:25:11.725Z,22.02
2022-12-16T18:27:57.292Z,23.15
2022-12-16T18:30:42.864Z,18.20
2022-12-16T18:33:28.590Z,23.75
2022-12-16T18:36:13.956Z,19.60
2022-12-16T18:38:59.434Z,21.35
2022-12-16T18:41:45.140Z,18.17
2022-12-16T18:44:32.383Z,17.85
2022-12-16T18:47:18.547Z,20.23
2022-12-16T18:50:04.856Z,21.48
2022-12-16T18:52:50.695Z,18.50
2022-12-16T18:55:35.939Z,19.50
2022-12-16T18:58:49.753Z,21.30
2022-12-16T19:01:29.816Z,18.20
2022-12-16T19:04:16.239Z,17.98
2022-12-16T19:07:02.399Z,15.40
2022-12-16T19:09:47.998Z,15.10
2022-12-16T19:12:33.328Z,14.35
2022-12-16T19:15:18.587Z,15.27
2022-12-16T19:18:04.124Z,15.60
2022-12-16T19:20:49.852Z,16.65
2022-12-16T19:23:35.960Z,15.13
2022-12-16T19:26:22.320Z,17.65
2022-12-16T19:29:07.916Z,16.85
2022-12-16T19:31:53.525Z,16.05
2022-12-16T19:34:41.806Z,16.20
2022-12-16T19:37:27.141Z,17.80
2022-12-16T19:40:13.108Z,18.35
2022-12-16T19:42:58.916Z,18.42
2022-12-16T19:45:44.478Z,15.43
2022-12-16T19:48:30.503Z,16.13
2022-12-16T19:51:20.269Z,15.43
2022-12-16T19:54:06.597Z,16.40
2022-12-16T19:56:52.781Z,14.50
2022-12-16T19:59:40.671Z,16.92
2022-12-16T20:02:29.675Z,18.38
2022-12-16T20:05:15.808Z,16.27
2022-12-16T20:08:01.859Z,17.35
2022-12-16T20:10:48.159Z,18.90
2022-12-16T20:13:34.260Z,18.15
2022-12-16T20:16:30.164Z,20.48
2022-12-16T20:19:15.972Z,19.73
2022-12-16T20:22:06.052Z,19.27
2022-12-16T20:24:52.368Z,19.92
2022-12-16T20:27:42.253Z,18.35
2022-12-16T20:30:29.372Z,21.45
2022-12-16T20:33:14.979Z,17.38
2022-12-16T20:36:01.077Z,18.30
2022-12-16T20:38:46.539Z,16.83
2022-12-16T20:41:32.409Z,18.27
2022-12-16T20:44:17.888Z,17.42
2022-12-16T20:47:03.798Z,18.30
2022-12-16T20:49:49.098Z,17.05
2022-12-16T20:52:34.534Z,18.50
2022-12-16T20:55:19.912Z,19.70
2022-12-16T20:58:05.276Z,19.25
2022-12-16T21:01:04.315Z,21.60
2022-12-16T21:03:50.376Z,20.45
2022-12-16T21:06:35.585Z,18.67
2022-12-16T21:09:21.096Z,19.48
2022-12-16T21:12:06.619Z,19.92
2022-12-16T21:14:52.078Z,19.45
2022-12-16T21:17:38.889Z,19.88
2022-12-16T21:20:24.619Z,18.38
2022-12-16T21:23:20.644Z,19.60
2022-12-16T21:26:06.244Z,19.00
2022-12-16T21:28:51.887Z,20.67
2022-12-16T21:31:38.082Z,20.90
2022-12-16T21:34:24.269Z,21.10
2022-12-16T21:37:10.047Z,19.20
2022-12-16T21:39:55.796Z,19.30
2022-12-16T21:42:44.110Z,19.80
2022-12-16T21:45:30.113Z,19.35
2022-12-16T21:48:16.137Z,16.88
2022-12-16T21:51:01.769Z,19.75
2022-12-16T21:54:08.171Z,20.23
2022-12-16T21:56:56.516Z,20.95
2022-12-16T21:59:42.915Z,19.27
2022-12-16T22:02:31.588Z,18.42
2022-12-16T22:05:17.198Z,19.80
2022-12-16T22:08:03.617Z,18.88
2022-12-16T22:10:49.401Z,18.25
2022-12-16T22:13:35.033Z,19.65
2022-12-16T22:16:21.105Z,19.80
2022-12-16T22:19:13.109Z,18.10
2022-12-16T22:21:58.704Z,18.83
2022-12-16T22:24:44.506Z,21.25
2022-12-16T22:27:30.163Z,21.85
2022-12-16T22:30:15.447Z,21.17
2022-12-16T22:33:01.547Z,22.35
2022-12-16T22:35:47.048Z,21.58
2022-12-16T22:38:32.320Z,20.73
2022-12-16T22:41:18.348Z,20.20
2022-12-16T22:44:06.341Z,19.30
2022-12-16T22:46:51.748Z,19.73
2022-12-16T22:49:38.064Z,19.38
2022-12-16T22:52:23.456Z,20.45
2022-12-16T22:55:09.694Z,21.10
2022-12-16T22:57:55.328Z,20.42
2022-12-16T23:00:42.117Z,21.75
2022-12-16T23:03:34.372Z,25.20
2022-12-16T23:06:20.165Z,22.58
2022-12-16T23:09:06.420Z,22.65
2022-12-16T23:11:57.498Z,25.15
2022-12-16T23:14:43.415Z,24.20
2022-12-16T23:17:32.526Z,22.48
2022-12-16T23:20:18.241Z,21.55
2022-12-16T23:23:03.885Z,19.23
2022-12-16T23:25:49.845Z,20.75
2022-12-16T23:28:35.059Z,18.92
2022-12-16T23:31:20.666Z,23.27
2022-12-16T23:34:06.753Z,19.92
2022-12-16T23:36:53.438Z,20.77
2022-12-16T23:39:39.217Z,18.50
2022-12-16T23:42:24.509Z,18.00
2022-12-16T23:45:10.636Z,18.83
2022-12-16T23:48:09.882Z,20.10
2022-12-16T23:50:55.529Z,20.50
2022-12-16T23:53:42.223Z,20.48
2022-12-16T23:56:27.773Z,21.40
2022-12-16T23:59:13.385Z,21.77
